createdAt,value
2017-09-14T00:01:57.490Z,84.10
2017-09-14T00:04:24.433Z,83.80
2017-09-14T00:06:51.378Z,84.20
2017-09-14T00:09:17.718Z,84.10
2017-09-14T00:11:44.867Z,84.80
2017-09-14T00:14:11.042Z,84.70
2017-09-14T00:16:38.043Z,84.40
2017-09-14T00:19:04.949Z,84.60
2017-09-14T00:21:31.254Z,84.50
2017-09-14T00:23:58.526Z,84.60
2017-09-14T00:26:24.990Z,84.20
2017-09-14T00:28:52.019Z,83.80
2017-09-14T00:31:18.965Z,83.60
2017-09-14T00:33:45.887Z,84.10
2017-09-14T00:36:12.887Z,84.20
2017-09-14T00:38:39.202Z,84.10
2017-09-14T00:41:05.344Z,84.20
2017-09-14T00:43:31.536Z,84.10
2017-09-14T00:45:58.573Z,84.40
2017-09-14T00:48:24.826Z,84.30
2017-09-14T00:50:52.023Z,84.10
2017-09-14T00:53:18.532Z,84.00
2017-09-14T00:55:44.819Z,84.70
2017-09-14T00:58:11.520Z,84.70
2017-09-14T01:00:37.825Z,84.10
2017-09-14T01:03:04.762Z,84.40
2017-09-14T01:05:31.774Z,84.40
2017-09-14T01:07:58.809Z,84.70
2017-09-14T01:10:25.006Z,84.60
2017-09-14T01:12:51.973Z,85.10
2017-09-14T01:15:37.582Z,83.90
2017-09-14T01:18:04.136Z,83.80
2017-09-14T01:20:30.619Z,83.80
2017-09-14T01:22:57.833Z,82.10
2017-09-14T01:25:25.018Z,82.10
2017-09-14T01:27:51.926Z,82.00
2017-09-14T01:30:18.473Z,81.50
2017-09-14T01:32:44.621Z,81.10
2017-09-14T01:35:11.589Z,81.00
2017-09-14T01:37:38.605Z,81.10
2017-09-14T01:40:06.354Z,80.40
2017-09-14T01:42:32.500Z,80.20
2017-09-14T01:44:59.485Z,80.60
2017-09-14T01:47:26.460Z,80.50
2017-09-14T01:49:53.375Z,80.40
2017-09-14T01:52:19.586Z,80.30
2017-09-14T01:54:45.723Z,80.60
2017-09-14T01:57:12.736Z,81.20
2017-09-14T01:59:39.028Z,81.20
2017-09-14T02:02:06.118Z,81.80
2017-09-14T02:04:32.237Z,81.70
2017-09-14T02:06:59.201Z,82.80
2017-09-14T02:09:26.129Z,83.80
2017-09-14T02:11:52.237Z,83.60
2017-09-14T02:14:18.408Z,84.30
2017-09-14T02:16:45.366Z,85.80
2017-09-14T02:19:12.321Z,85.80
2017-09-14T02:21:39.314Z,86.20
2017-09-14T02:24:06.242Z,86.80
2017-09-14T02:26:33.080Z,87.80
2017-09-14T02:28:59.387Z,87.70
2017-09-14T02:31:25.518Z,88.60
2017-09-14T02:33:51.679Z,89.70
2017-09-14T02:36:17.863Z,90.50
2017-09-14T02:38:44.804Z,91.80
2017-09-14T02:41:11.748Z,92.60
2017-09-14T02:43:38.801Z,92.90
2017-09-14T02:46:04.920Z,92.80
2017-09-14T02:48:31.813Z,93.50
2017-09-14T02:50:58.710Z,93.90
2017-09-14T02:53:25.649Z,94.50
2017-09-14T02:55:51.781Z,94.40
2017-09-14T02:58:18.752Z,95.00
2017-09-14T03:00:45.047Z,94.90
2017-09-14T03:03:11.931Z,96.00
2017-09-14T03:05:38.177Z,96.00
2017-09-14T03:08:05.125Z,96.80
2017-09-14T03:10:31.258Z,96.70
2017-09-14T03:12:58.141Z,98.40
2017-09-14T03:15:25.085Z,98.50
2017-09-14T03:17:51.341Z,98.40
2017-09-14T03:20:17.606Z,98.70
2017-09-14T03:22:44.506Z,99.90
2017-09-14T03:25:11.474Z,99.90
2017-09-14T03:27:37.829Z,99.90
2017-09-14T03:30:03.963Z,99.90
2017-09-14T03:32:30.134Z,99.90
2017-09-14T03:34:57.127Z,99.90
2017-09-14T03:37:23.416Z,99.90
2017-09-14T03:39:50.373Z,99.90
2017-09-14T03:42:17.441Z,99.90
2017-09-14T03:44:44.380Z,99.90
2017-09-14T03:47:11.335Z,99.90
2017-09-14T03:49:37.570Z,99.90
2017-09-14T03:52:04.542Z,99.90
2017-09-14T03:54:30.694Z,99.90
2017-09-14T03:56:57.783Z,99.90
2017-09-14T03:59:24.705Z,99.90
2017-09-14T04:01:50.906Z,99.90
2017-09-14T04:04:17.976Z,99.90
2017-09-14T04:06:44.959Z,99.90
2017-09-14T04:09:11.906Z,99.90
2017-09-14T04:11:38.792Z,99.90
2017-09-14T04:14:04.936Z,99.90
2017-09-14T04:16:31.127Z,99.90
2017-09-14T04:18:58.116Z,99.90
2017-09-14T04:21:24.310Z,99.90
2017-09-14T04:23:51.207Z,99.90
2017-09-14T04:26:18.170Z,99.90
2017-09-14T04:28:45.109Z,99.90
2017-09-14T04:31:11.341Z,99.90
2017-09-14T04:33:38.233Z,99.70
2017-09-14T04:36:05.200Z,99.90
2017-09-14T04:38:31.337Z,99.70
2017-09-14T04:40:58.258Z,99.80
2017-09-14T04:43:25.225Z,99.20
2017-09-14T04:45:52.175Z,99.50
2017-09-14T04:48:18.448Z,99.40
2017-09-14T04:50:45.465Z,98.90
2017-09-14T04:53:12.309Z,99.40
2017-09-14T04:55:39.325Z,99.80
2017-09-14T04:58:06.250Z,99.90
2017-09-14T05:00:33.105Z,99.90
2017-09-14T05:02:59.394Z,99.90
2017-09-14T05:05:26.298Z,99.90
2017-09-14T05:07:53.253Z,99.90
2017-09-14T05:10:19.510Z,99.90
2017-09-14T05:12:45.633Z,99.90
2017-09-14T05:15:12.622Z,99.90
2017-09-14T05:17:39.601Z,99.90
2017-09-14T05:20:05.802Z,99.90
2017-09-14T05:22:31.926Z,99.90
2017-09-14T05:24:58.929Z,99.90
2017-09-14T05:27:25.874Z,99.90
2017-09-14T05:29:52.844Z,99.90
2017-09-14T05:32:19.795Z,99.90
2017-09-14T05:34:45.904Z,99.90
2017-09-14T05:37:12.898Z,99.90
2017-09-14T05:39:39.117Z,99.90
2017-09-14T05:42:06.050Z,99.90
2017-09-14T05:44:32.236Z,99.90
2017-09-14T05:46:59.230Z,99.90
2017-09-14T05:49:26.260Z,99.90
2017-09-14T05:51:52.560Z,99.90
2017-09-14T05:54:18.700Z,99.90
2017-09-14T05:56:45.672Z,99.90
2017-09-14T05:59:12.634Z,99.90
2017-09-14T06:01:38.867Z,99.90
2017-09-14T06:04:05.812Z,99.90
2017-09-14T06:06:31.923Z,99.90
2017-09-14T06:08:58.097Z,99.90
2017-09-14T06:11:24.396Z,99.90
2017-09-14T06:13:50.548Z,99.90
2017-09-14T06:16:17.438Z,99.90
2017-09-14T06:18:43.624Z,99.90
2017-09-14T06:21:10.507Z,99.90
2017-09-14T06:23:36.766Z,99.90
2017-09-14T06:26:03.517Z,99.90
2017-09-14T06:28:29.754Z,99.90
2017-09-14T06:30:55.897Z,99.90
2017-09-14T06:33:22.103Z,99.90
2017-09-14T06:35:52.307Z,99.90
2017-09-14T06:38:19.287Z,99.90
2017-09-14T06:40:45.478Z,99.90
2017-09-14T06:43:16.017Z,99.90
2017-09-14T06:45:42.313Z,99.90
2017-09-14T06:48:09.202Z,99.90
2017-09-14T06:50:35.438Z,99.90
2017-09-14T06:53:02.436Z,99.90
2017-09-14T06:55:28.568Z,99.90
2017-09-14T06:57:54.752Z,98.90
2017-09-14T07:00:23.636Z,94.60
2017-09-14T07:02:51.329Z,93.50
2017-09-14T07:05:18.236Z,94.10
2017-09-14T07:07:44.560Z,93.90
2017-09-14T07:10:11.531Z,92.10
2017-09-14T07:12:38.585Z,93.30
2017-09-14T07:15:05.579Z,92.30
2017-09-14T07:17:31.702Z,92.20
2017-09-14T07:19:58.637Z,93.30
2017-09-14T07:22:24.981Z,93.00
2017-09-14T07:24:52.063Z,93.90
2017-09-14T07:27:21.237Z,92.80
2017-09-14T07:29:47.600Z,92.80
2017-09-14T07:32:13.845Z,92.80
2017-09-14T07:34:40.797Z,89.70
2017-09-14T07:37:07.798Z,89.00
2017-09-14T07:39:34.060Z,88.80
2017-09-14T07:42:00.939Z,87.40
2017-09-14T07:44:27.924Z,85.90
2017-09-14T07:46:54.863Z,83.80
2017-09-14T07:49:22.078Z,83.60
2017-09-14T07:51:49.033Z,82.60
2017-09-14T07:54:16.006Z,82.80
2017-09-14T07:56:42.756Z,82.60
2017-09-14T07:59:09.695Z,81.70
2017-09-14T08:01:35.834Z,81.50
2017-09-14T08:04:02.828Z,81.30
2017-09-14T08:06:30.347Z,81.10
2017-09-14T08:08:57.198Z,80.70
2017-09-14T08:11:23.430Z,80.70
2017-09-14T08:13:51.886Z,79.60
2017-09-14T08:16:18.625Z,81.00
2017-09-14T08:18:44.806Z,79.90
2017-09-14T08:21:11.872Z,77.70
2017-09-14T08:23:38.169Z,77.50
2017-09-14T08:26:04.478Z,77.10
2017-09-14T08:28:31.405Z,75.90
2017-09-14T08:31:08.654Z,75.70
2017-09-14T08:33:35.744Z,74.60
2017-09-14T08:36:02.632Z,75.00
2017-09-14T08:38:29.650Z,73.60
2017-09-14T08:40:56.568Z,73.10
2017-09-14T08:43:23.502Z,73.20
2017-09-14T08:45:50.497Z,72.50
2017-09-14T08:48:17.391Z,70.70
2017-09-14T08:50:44.548Z,70.50
2017-09-14T08:53:10.703Z,69.10
2017-09-14T08:55:36.925Z,69.50
2017-09-14T08:58:03.828Z,68.40
2017-09-14T09:00:30.781Z,68.40
2017-09-14T09:02:57.710Z,69.20
2017-09-14T09:05:24.762Z,70.50
2017-09-14T09:07:51.640Z,69.70
2017-09-14T09:10:17.952Z,69.60
2017-09-14T09:12:44.897Z,69.20
2017-09-14T09:15:11.905Z,69.70
2017-09-14T09:17:38.878Z,68.80
2017-09-14T09:20:05.842Z,69.00
2017-09-14T09:22:32.010Z,68.90
2017-09-14T09:24:58.897Z,70.70
2017-09-14T09:27:25.141Z,70.60
2017-09-14T09:29:51.578Z,71.40
2017-09-14T09:32:17.781Z,72.20
2017-09-14T09:34:45.013Z,73.30
2017-09-14T09:37:11.953Z,74.20
2017-09-14T09:39:39.004Z,73.10
2017-09-14T09:42:05.997Z,73.40
2017-09-14T09:44:32.134Z,73.40
2017-09-14T09:47:03.685Z,77.20
2017-09-14T09:49:33.242Z,76.30
2017-09-14T09:52:00.624Z,77.10
2017-09-14T09:54:28.853Z,76.70
2017-09-14T09:56:57.320Z,77.30
2017-09-14T09:59:26.249Z,77.20
2017-09-14T10:01:55.726Z,74.50
2017-09-14T10:04:23.180Z,74.30
2017-09-14T10:06:52.911Z,74.80
2017-09-14T10:09:20.228Z,75.00
2017-09-14T10:11:47.612Z,74.10
2017-09-14T10:14:15.149Z,75.20
2017-09-14T10:16:43.514Z,75.80
2017-09-14T10:19:12.150Z,75.60
2017-09-14T10:21:39.206Z,75.10
2017-09-14T10:24:06.751Z,73.90
2017-09-14T10:26:33.591Z,72.40
2017-09-14T10:29:00.962Z,73.00
2017-09-14T10:31:28.075Z,73.70
2017-09-14T10:33:54.825Z,73.70
2017-09-14T10:36:21.862Z,72.80
2017-09-14T10:38:48.101Z,72.60
2017-09-14T10:41:15.156Z,73.20
2017-09-14T10:43:41.932Z,74.00
2017-09-14T10:46:08.908Z,72.60
2017-09-14T10:48:35.190Z,72.50
2017-09-14T10:51:02.072Z,71.10
2017-09-14T10:53:28.357Z,70.50
2017-09-14T10:55:56.043Z,70.50
2017-09-14T10:58:22.673Z,70.20
2017-09-14T11:00:49.604Z,72.80
2017-09-14T11:03:16.302Z,72.60
2017-09-14T11:05:43.514Z,75.00
2017-09-14T11:08:10.474Z,77.70
2017-09-14T11:10:37.708Z,80.10
2017-09-14T11:13:05.172Z,79.90
2017-09-14T11:15:31.371Z,78.80
2017-09-14T11:17:57.651Z,77.70
2017-09-14T11:20:23.823Z,75.90
2017-09-14T11:22:50.805Z,75.40
2017-09-14T11:25:17.051Z,75.20
2017-09-14T11:27:43.985Z,76.70
2017-09-14T11:30:10.981Z,79.10
2017-09-14T11:32:37.948Z,87.00
2017-09-14T11:35:11.016Z,86.60
2017-09-14T11:37:38.052Z,97.20
2017-09-14T11:40:04.242Z,97.10
2017-09-14T11:42:30.700Z,99.90
2017-09-14T11:44:57.658Z,99.90
2017-09-14T11:47:24.627Z,99.90
2017-09-14T11:49:51.335Z,99.90
2017-09-14T11:52:18.420Z,99.90
2017-09-14T11:54:45.216Z,99.90
2017-09-14T11:57:12.101Z,99.90
2017-09-14T11:59:38.345Z,99.90
2017-09-14T12:02:04.469Z,97.60
2017-09-14T12:04:31.702Z,99.90
2017-09-14T12:06:58.659Z,99.90
2017-09-14T12:09:24.857Z,99.90
2017-09-14T12:11:51.833Z,93.50
2017-09-14T12:14:19.665Z,92.80
2017-09-14T12:16:45.891Z,93.50
2017-09-14T12:19:12.036Z,92.10
2017-09-14T12:21:39.194Z,92.40
2017-09-14T12:24:05.690Z,97.10
2017-09-14T12:26:31.818Z,92.90
2017-09-14T12:28:58.768Z,94.00
2017-09-14T12:31:25.757Z,90.50
2017-09-14T12:33:52.674Z,86.50
2017-09-14T12:36:19.689Z,83.00
2017-09-14T12:38:46.619Z,80.50
2017-09-14T12:41:12.764Z,81.80
2017-09-14T12:43:39.415Z,81.10
2017-09-14T12:46:06.910Z,79.50
2017-09-14T12:48:34.097Z,75.60
2017-09-14T12:51:01.402Z,69.50
2017-09-14T12:53:28.389Z,70.90
2017-09-14T12:55:55.289Z,72.20
2017-09-14T12:58:22.251Z,70.80
2017-09-14T13:00:55.408Z,70.70
2017-09-14T13:03:22.438Z,72.50
2017-09-14T13:05:48.956Z,72.40
2017-09-14T13:08:15.891Z,71.00
2017-09-14T13:10:46.084Z,71.00
2017-09-14T13:13:15.195Z,70.90
2017-09-14T13:15:42.855Z,71.60
2017-09-14T13:18:09.125Z,70.80
2017-09-14T13:20:35.374Z,72.40
2017-09-14T13:23:01.626Z,73.80
2017-09-14T13:25:28.822Z,69.00
2017-09-14T13:27:56.094Z,69.10
2017-09-14T13:30:22.566Z,69.00
2017-09-14T13:32:48.942Z,67.80
2017-09-14T13:35:16.284Z,66.20
2017-09-14T13:37:42.786Z,66.10
2017-09-14T13:40:09.442Z,66.80
2017-09-14T13:42:36.469Z,71.40
2017-09-14T13:45:02.774Z,71.30
2017-09-14T13:47:29.105Z,71.20
2017-09-14T13:49:56.058Z,70.40
2017-09-14T13:52:22.193Z,70.10
2017-09-14T13:54:48.783Z,69.30
2017-09-14T13:57:18.282Z,70.70
2017-09-14T13:59:45.703Z,70.70
2017-09-14T14:02:11.958Z,70.60
2017-09-14T14:04:38.991Z,70.80
2017-09-14T14:07:05.907Z,67.50
2017-09-14T14:09:33.042Z,67.50
2017-09-14T14:12:00.457Z,68.30
2017-09-14T14:14:27.102Z,69.90
2017-09-14T14:16:53.447Z,69.80
2017-09-14T14:19:20.853Z,72.00
2017-09-14T14:21:47.369Z,72.10
2017-09-14T14:24:13.738Z,71.90
2017-09-14T14:26:40.240Z,72.10
2017-09-14T14:29:06.753Z,72.60
2017-09-14T14:31:33.733Z,71.60
2017-09-14T14:34:00.479Z,70.60
2017-09-14T14:36:27.588Z,68.40
2017-09-14T14:38:54.346Z,68.30
2017-09-14T14:41:21.296Z,68.50
2017-09-14T14:43:47.793Z,70.00
2017-09-14T14:46:14.094Z,69.70
2017-09-14T14:48:42.762Z,72.90
2017-09-14T14:51:10.018Z,72.70
2017-09-14T14:53:37.374Z,75.30
2017-09-14T14:56:03.520Z,75.20
2017-09-14T14:58:29.866Z,75.70
2017-09-14T15:00:57.553Z,74.00
2017-09-14T15:03:24.867Z,74.00
2017-09-14T15:05:55.618Z,72.00
2017-09-14T15:08:23.329Z,72.20
2017-09-14T15:10:49.918Z,77.40
2017-09-14T15:13:17.925Z,83.50
2017-09-14T15:15:45.127Z,86.90
2017-09-14T15:18:11.419Z,88.90
2017-09-14T15:20:41.594Z,99.90
2017-09-14T15:23:08.277Z,99.90
2017-09-14T15:25:36.029Z,99.90
2017-09-14T15:28:04.588Z,99.90
2017-09-14T15:30:31.936Z,99.90
2017-09-14T15:32:59.221Z,99.90
2017-09-14T15:35:27.359Z,99.90
2017-09-14T15:37:55.136Z,99.90
2017-09-14T15:40:27.697Z,99.90
2017-09-14T15:43:00.051Z,99.90
2017-09-14T15:45:33.398Z,99.90
2017-09-14T15:47:59.925Z,99.90
2017-09-14T15:50:32.191Z,99.90
2017-09-14T15:52:59.226Z,99.90
2017-09-14T15:55:26.491Z,99.90
2017-09-14T15:57:52.924Z,99.90
2017-09-14T16:00:19.093Z,99.90
2017-09-14T16:02:46.146Z,99.90
2017-09-14T16:05:13.018Z,99.90
2017-09-14T16:07:39.386Z,99.90
2017-09-14T16:10:05.836Z,99.90
2017-09-14T16:12:32.091Z,99.90
2017-09-14T16:14:58.297Z,99.90
2017-09-14T16:17:26.423Z,99.90
2017-09-14T16:19:52.939Z,99.90
2017-09-14T16:22:19.231Z,99.90
2017-09-14T16:24:45.481Z,99.90
2017-09-14T16:27:12.394Z,99.90
2017-09-14T16:29:38.636Z,99.90
2017-09-14T16:32:05.637Z,99.90
2017-09-14T16:34:33.090Z,99.90
2017-09-14T16:36:59.459Z,99.90
2017-09-14T16:39:26.521Z,99.90
2017-09-14T16:41:53.414Z,99.90
2017-09-14T16:44:20.453Z,99.90
2017-09-14T16:46:47.431Z,99.90
2017-09-14T16:49:13.544Z,99.90
2017-09-14T16:51:40.581Z,99.90
2017-09-14T16:54:07.708Z,99.90
2017-09-14T16:56:34.909Z,99.90
2017-09-14T16:59:01.915Z,99.90
2017-09-14T17:01:30.600Z,99.90
2017-09-14T17:03:57.605Z,99.90
2017-09-14T17:06:24.562Z,99.90
2017-09-14T17:08:50.722Z,99.90
2017-09-14T17:11:17.673Z,99.90
2017-09-14T17:13:44.618Z,99.90
2017-09-14T17:16:11.573Z,99.90
2017-09-14T17:18:38.644Z,99.90
2017-09-14T17:21:05.554Z,99.90
2017-09-14T17:23:31.768Z,99.90
2017-09-14T17:25:58.966Z,99.90
2017-09-14T17:28:26.800Z,99.90
2017-09-14T17:30:53.112Z,99.90
2017-09-14T17:33:20.005Z,99.90
2017-09-14T17:35:46.953Z,99.90
2017-09-14T17:38:14.370Z,99.90
2017-09-14T17:40:40.558Z,99.90
2017-09-14T17:43:07.743Z,99.90
2017-09-14T17:45:33.997Z,99.90
2017-09-14T17:48:00.216Z,99.90
2017-09-14T17:50:27.092Z,99.90
2017-09-14T17:52:57.570Z,99.90
2017-09-14T17:55:24.570Z,99.90
2017-09-14T17:57:50.805Z,99.90
2017-09-14T18:00:17.784Z,99.90
2017-09-14T18:02:44.147Z,99.90
2017-09-14T18:05:11.273Z,99.90
2017-09-14T18:07:38.252Z,99.90
2017-09-14T18:10:05.405Z,99.90
2017-09-14T18:12:31.639Z,99.90
2017-09-14T18:14:57.952Z,99.90
2017-09-14T18:17:24.074Z,99.90
2017-09-14T18:20:01.565Z,99.90
2017-09-14T18:22:31.446Z,99.90
2017-09-14T18:24:59.619Z,99.90
2017-09-14T18:27:26.619Z,99.90
2017-09-14T18:29:55.381Z,99.90
2017-09-14T18:32:21.583Z,99.90
2017-09-14T18:34:48.570Z,99.90
2017-09-14T18:37:16.504Z,99.90
2017-09-14T18:39:42.714Z,99.90
2017-09-14T18:42:09.685Z,99.90
2017-09-14T18:44:37.467Z,99.90
2017-09-14T18:47:04.562Z,99.90
2017-09-14T18:49:30.948Z,99.90
2017-09-14T18:51:57.190Z,99.90
2017-09-14T18:54:25.217Z,99.90
2017-09-14T18:56:51.991Z,99.90
2017-09-14T18:59:19.394Z,99.90
2017-09-14T19:01:47.276Z,99.90
2017-09-14T19:04:21.136Z,99.90
2017-09-14T19:06:48.105Z,99.90
2017-09-14T19:09:15.094Z,99.90
2017-09-14T19:11:42.166Z,99.90
2017-09-14T19:14:08.773Z,99.90
2017-09-14T19:16:35.702Z,99.90
2017-09-14T19:19:01.869Z,99.90
2017-09-14T19:21:28.999Z,99.90
2017-09-14T19:23:55.333Z,99.90
2017-09-14T19:26:22.305Z,99.90
2017-09-14T19:28:49.780Z,99.90
2017-09-14T19:31:16.733Z,99.90
2017-09-14T19:33:43.717Z,99.90
2017-09-14T19:36:10.686Z,99.90
2017-09-14T19:38:37.057Z,99.90
2017-09-14T19:41:03.267Z,99.90
2017-09-14T19:43:29.582Z,99.90
2017-09-14T19:45:56.549Z,99.90
2017-09-14T19:48:23.485Z,99.90
2017-09-14T19:50:50.473Z,99.90
2017-09-14T19:53:16.656Z,99.90
2017-09-14T19:55:42.898Z,99.20
2017-09-14T19:58:09.793Z,97.60
2017-09-14T20:00:35.930Z,97.50
2017-09-14T20:03:02.871Z,96.80
2017-09-14T20:05:29.826Z,96.90
2017-09-14T20:07:56.124Z,96.80
2017-09-14T20:10:23.214Z,96.00
2017-09-14T20:12:50.362Z,94.80
2017-09-14T20:15:17.286Z,94.70
2017-09-14T20:17:44.315Z,95.20
2017-09-14T20:20:11.357Z,94.70
2017-09-14T20:22:38.337Z,95.90
2017-09-14T20:25:04.648Z,95.70
2017-09-14T20:27:31.633Z,93.70
2017-09-14T20:29:58.721Z,94.70
2017-09-14T20:32:25.697Z,94.90
2017-09-14T20:34:53.548Z,95.10
2017-09-14T20:37:19.719Z,94.90
2017-09-14T20:39:46.619Z,94.20
2017-09-14T20:42:13.582Z,94.90
2017-09-14T20:44:40.565Z,94.40
2017-09-14T20:47:07.485Z,94.20
2017-09-14T20:49:34.483Z,94.50
2017-09-14T20:52:01.473Z,94.80
2017-09-14T20:54:29.686Z,94.60
2017-09-14T20:56:56.772Z,93.70
2017-09-14T20:59:24.065Z,93.90
2017-09-14T21:01:51.278Z,93.70
2017-09-14T21:04:17.541Z,93.50
2017-09-14T21:06:52.519Z,93.60
2017-09-14T21:09:22.390Z,94.90
2017-09-14T21:11:48.616Z,94.20
2017-09-14T21:14:14.754Z,94.50
2017-09-14T21:16:41.708Z,93.50
2017-09-14T21:19:08.641Z,94.10
2017-09-14T21:21:35.061Z,94.00
2017-09-14T21:24:03.388Z,94.20
2017-09-14T21:26:29.529Z,94.10
2017-09-14T21:28:56.500Z,94.40
2017-09-14T21:31:23.621Z,94.70
2017-09-14T21:33:50.536Z,94.60
2017-09-14T21:36:17.445Z,94.40
2017-09-14T21:38:44.394Z,94.20
2017-09-14T21:41:11.336Z,95.90
2017-09-14T21:43:38.282Z,94.60
2017-09-14T21:46:05.253Z,94.50
2017-09-14T21:48:31.375Z,94.40
2017-09-14T21:50:57.564Z,94.90
2017-09-14T21:53:24.485Z,95.20
2017-09-14T21:55:51.445Z,95.20
2017-09-14T21:58:18.364Z,95.50
2017-09-14T22:00:45.359Z,94.70
2017-09-14T22:03:12.277Z,95.80
2017-09-14T22:05:39.285Z,96.10
2017-09-14T22:08:05.498Z,96.00
2017-09-14T22:10:32.506Z,96.30
2017-09-14T22:12:59.411Z,96.50
2017-09-14T22:15:26.804Z,97.20
2017-09-14T22:17:53.047Z,96.20
2017-09-14T22:20:20.064Z,95.30
2017-09-14T22:22:47.061Z,95.40
2017-09-14T22:25:13.975Z,95.50
2017-09-14T22:27:41.171Z,96.00
2017-09-14T22:30:08.119Z,95.00
2017-09-14T22:32:35.005Z,95.30
2017-09-14T22:35:02.019Z,95.70
2017-09-14T22:37:29.226Z,96.00
2017-09-14T22:39:55.470Z,95.90
2017-09-14T22:42:22.358Z,99.90
2017-09-14T22:44:49.243Z,99.90
2017-09-14T22:47:16.181Z,99.90
2017-09-14T22:49:43.045Z,99.90
2017-09-14T22:52:10.016Z,99.90
2017-09-14T22:54:37.551Z,99.90
2017-09-14T22:57:04.702Z,99.90
2017-09-14T22:59:31.638Z,99.90
2017-09-14T23:01:58.589Z,99.90
2017-09-14T23:04:25.596Z,99.90
2017-09-14T23:06:51.855Z,99.90
2017-09-14T23:09:18.818Z,99.90
2017-09-14T23:11:45.778Z,99.90
2017-09-14T23:14:12.690Z,99.90
2017-09-14T23:16:39.604Z,99.90
2017-09-14T23:19:05.843Z,99.90
2017-09-14T23:21:32.000Z,99.90
2017-09-14T23:23:58.986Z,99.90
2017-09-14T23:26:25.889Z,99.90
2017-09-14T23:28:52.849Z,99.90
2017-09-14T23:31:19.812Z,99.90
2017-09-14T23:33:46.850Z,99.90
2017-09-14T23:36:13.401Z,99.90
2017-09-14T23:38:39.633Z,99.90
2017-09-14T23:41:06.499Z,99.90
2017-09-14T23:43:32.740Z,99.90
2017-09-14T23:45:58.965Z,99.90
2017-09-14T23:48:25.818Z,99.90
2017-09-14T23:50:52.828Z,99.90
2017-09-14T23:53:19.757Z,99.90
2017-09-14T23:55:46.705Z,99.90
2017-09-14T23:58:13.749Z,99.90
